الصفحة الرئيسية
METAR-TAF:

METAR-TAF

مطار :

بوا فيستا, الرأس الأخضر

دائرة عرض: 16-08-15N, خط طول: 22-53-22W, ارتفاع: 21 متر

مراقبة الطقس الحالي

تاريخ ووقت الإصدار 1ساعة و 4 دقيقة قبل الساعة 17:00UTC
ريح 8 عقدة من الشمال
درجة الحرارة 28°درجة مئوية
الرطوبة 66%
ضغط 1015 hPa
الرؤية 10 كم أو أكثر
غيوم متفرقة على ارتفاع 1500 قدم

METAR: GVBA 161700Z 36008KT 9999 SCT015 28/21 Q1015 NOSIG

زمن: 17:04 (18:04 UTC)

توقعات

تاريخ ووقت الإصدار 7ساعات و 4 دقيقة قبل الساعة 11:00UTC
التوقعات صالحة من16 الساعة 12 UTC إلى 17 الساعة 18 UTC
ريح 10 عقدة من الشمال/الشمال الشرقي
الرؤية 10 كم أو أكثر
غيوم مفككة على ارتفاع 1500 قدم
مؤقت
من 17 الساعة 01 UTC إلى 17 الساعة 07 UTC
ريح 2 عقدةمن اتجاهات متغيرة

TAF: GVBA 161100Z 1612/1718 03010KT 9999 BKN015 TEMPO 1701/1707 VRB02KT

أرصاد الطقس والتوقعات من أكثر من 4000 مطار (تقارير الطقس للمطار METAR والتنبؤ بالطقس بالمطارTAF).

المحطات المتاحة هي النقط الصفراء والحمراء على الخريطة.

حرك المؤشر فوق النقطة لمعرفة اسم المحطة.

ثم انقر لمعرفة أرصاد وتوقعات الطقس.

لتغيير الخارطة: اضغط على الأزرار الخضراء مع رمز الصليب الأسود للتكبير. على الزر الأخضر مع شرطة للتصغير، أو على الأسهم الخضراء للخرائط المجاورة.


METAR-TAF: